createdAt,value
2019-02-08T00:00:15.650Z,21.90
2019-02-08T00:02:47.179Z,22.10
2019-02-08T00:05:17.766Z,19.07
2019-02-08T00:07:48.506Z,19.70
2019-02-08T00:10:19.202Z,21.80
2019-02-08T00:12:50.669Z,22.93
2019-02-08T00:15:21.509Z,21.57
2019-02-08T00:17:51.979Z,20.10
2019-02-08T00:20:22.658Z,19.20
2019-02-08T00:22:53.142Z,18.33
2019-02-08T00:25:23.682Z,19.03
2019-02-08T00:27:54.723Z,17.40
2019-02-08T00:30:25.720Z,19.10
2019-02-08T00:32:56.919Z,16.17
2019-02-08T00:35:27.662Z,15.67
2019-02-08T00:37:58.147Z,14.53
2019-02-08T00:40:29.172Z,16.07
2019-02-08T00:43:01.080Z,17.87
2019-02-08T00:45:31.582Z,15.80
2019-02-08T00:48:02.039Z,14.33
2019-02-08T00:50:32.623Z,16.23
2019-02-08T00:53:03.134Z,15.73
2019-02-08T00:55:33.608Z,15.37
2019-02-08T00:58:04.151Z,14.80
2019-02-08T01:00:34.718Z,14.10
2019-02-08T01:03:06.045Z,14.30
2019-02-08T01:05:45.561Z,14.63
2019-02-08T01:08:16.062Z,14.33
2019-02-08T01:10:49.518Z,15.23
2019-02-08T01:13:19.992Z,14.07
2019-02-08T01:15:50.460Z,14.03
2019-02-08T01:18:20.927Z,14.30
2019-02-08T01:20:51.399Z,15.67
2019-02-08T01:23:22.184Z,16.53
2019-02-08T01:25:52.692Z,14.60
2019-02-08T01:28:23.186Z,16.10
2019-02-08T01:30:53.726Z,14.87
2019-02-08T01:33:24.322Z,14.13
2019-02-08T01:35:54.776Z,14.10
2019-02-08T01:38:25.485Z,14.67
2019-02-08T01:40:55.981Z,16.43
2019-02-08T01:43:26.435Z,14.60
2019-02-08T01:45:57.215Z,14.57
2019-02-08T01:48:27.706Z,15.27
2019-02-08T01:50:58.197Z,11.50
2019-02-08T01:53:28.631Z,15.03
2019-02-08T01:55:59.082Z,15.17
2019-02-08T01:58:29.583Z,12.93
2019-02-08T02:01:00.035Z,16.57
2019-02-08T02:03:31.267Z,14.60
2019-02-08T02:06:02.052Z,16.03
2019-02-08T02:08:32.513Z,16.57
2019-02-08T02:11:03.504Z,14.03
2019-02-08T02:13:34.034Z,13.57
2019-02-08T02:16:04.537Z,13.43
2019-02-08T02:18:34.998Z,12.03
2019-02-08T02:21:05.573Z,13.33
2019-02-08T02:23:36.139Z,14.43
2019-02-08T02:26:06.607Z,14.50
2019-02-08T02:28:37.111Z,14.17
2019-02-08T02:31:07.591Z,14.80
2019-02-08T02:33:38.038Z,12.37
2019-02-08T02:36:08.506Z,11.00
2019-02-08T02:38:39.180Z,10.80
2019-02-08T02:41:09.642Z,11.03
2019-02-08T02:43:40.195Z,11.60
2019-02-08T02:46:10.701Z,12.70
2019-02-08T02:48:41.157Z,11.73
2019-02-08T02:51:11.737Z,12.20
2019-02-08T02:53:42.446Z,11.53
2019-02-08T02:56:13.030Z,11.97
2019-02-08T02:58:55.769Z,11.93
2019-02-08T03:01:26.428Z,12.57
2019-02-08T03:03:56.869Z,12.30
2019-02-08T03:06:27.405Z,13.53
2019-02-08T03:08:58.203Z,12.17
2019-02-08T03:11:28.656Z,13.77
2019-02-08T03:13:59.115Z,13.23
2019-02-08T03:16:29.574Z,13.73
2019-02-08T03:19:01.031Z,14.33
2019-02-08T03:21:31.514Z,15.73
2019-02-08T03:24:02.120Z,14.20
2019-02-08T03:26:32.641Z,14.60
2019-02-08T03:29:03.110Z,13.40
2019-02-08T03:31:33.680Z,14.27
2019-02-08T03:34:04.366Z,15.57
2019-02-08T03:36:34.849Z,8.43
2019-02-08T03:39:08.562Z,13.93
2019-02-08T03:41:39.170Z,15.80
2019-02-08T03:44:09.610Z,16.10
2019-02-08T03:46:40.079Z,13.27
2019-02-08T03:49:10.665Z,13.93
2019-02-08T03:51:42.098Z,13.63
2019-02-08T03:54:12.553Z,14.43
2019-02-08T03:56:43.062Z,14.80
2019-02-08T03:59:13.803Z,13.17
2019-02-08T04:01:44.258Z,17.07
2019-02-08T04:04:17.946Z,20.43
2019-02-08T04:06:48.410Z,14.53
2019-02-08T04:09:18.869Z,14.80
2019-02-08T04:11:49.331Z,15.87
2019-02-08T04:14:19.791Z,17.47
2019-02-08T04:16:50.244Z,12.77
2019-02-08T04:19:20.691Z,14.60
2019-02-08T04:21:52.127Z,14.37
2019-02-08T04:24:29.814Z,15.10
2019-02-08T04:26:54.741Z,16.90
2019-02-08T04:29:25.179Z,16.57
2019-02-08T04:31:55.645Z,16.67
2019-02-08T04:34:26.108Z,16.57
2019-02-08T04:36:56.565Z,14.57
2019-02-08T04:39:27.018Z,15.53
2019-02-08T04:41:57.702Z,17.10
2019-02-08T04:44:28.233Z,16.77
2019-02-08T04:46:58.707Z,15.13
2019-02-08T04:49:29.169Z,16.87
2019-02-08T04:51:59.614Z,16.00
2019-02-08T04:54:37.886Z,14.33
2019-02-08T04:57:02.711Z,15.73
2019-02-08T04:59:33.273Z,14.73
2019-02-08T05:02:04.775Z,15.00
2019-02-08T05:04:35.291Z,15.13
2019-02-08T05:07:05.765Z,13.40
2019-02-08T05:09:36.271Z,12.77
2019-02-08T05:12:06.730Z,12.43
2019-02-08T05:14:37.188Z,14.07
2019-02-08T05:17:07.649Z,14.87
2019-02-08T05:19:38.109Z,13.73
2019-02-08T05:22:08.711Z,13.27
2019-02-08T05:24:45.774Z,16.17
2019-02-08T05:27:11.333Z,16.80
2019-02-08T05:29:41.798Z,12.30
2019-02-08T05:32:12.295Z,16.20
2019-02-08T05:34:42.851Z,12.60
2019-02-08T05:37:13.910Z,11.93
2019-02-08T05:39:44.349Z,12.07
2019-02-08T05:42:15.464Z,20.97
2019-02-08T05:44:47.022Z,21.30
2019-02-08T05:47:17.475Z,30.40
2019-02-08T05:49:47.945Z,43.53
2019-02-08T05:52:18.774Z,40.10
2019-02-08T05:54:54.366Z,37.80
2019-02-08T05:57:21.447Z,33.00
2019-02-08T05:59:52.188Z,31.13
2019-02-08T06:02:22.679Z,31.40
2019-02-08T06:04:53.124Z,26.93
2019-02-08T06:07:23.579Z,34.23
2019-02-08T06:09:54.050Z,26.83
2019-02-08T06:12:24.682Z,23.87
2019-02-08T06:14:55.415Z,23.73
2019-02-08T06:17:25.974Z,26.93
2019-02-08T06:19:56.469Z,23.80
2019-02-08T06:22:27.267Z,22.20
2019-02-08T06:25:03.148Z,23.80
2019-02-08T06:27:30.025Z,24.47
2019-02-08T06:30:00.801Z,21.07
2019-02-08T06:32:31.303Z,22.50
2019-02-08T06:35:01.837Z,23.73
2019-02-08T06:37:32.662Z,23.17
2019-02-08T06:40:18.305Z,26.00
2019-02-08T06:43:06.938Z,27.07
2019-02-08T06:45:43.643Z,23.93
2019-02-08T06:48:14.458Z,24.10
2019-02-08T06:50:44.990Z,22.53
2019-02-08T06:53:15.444Z,20.73
2019-02-08T06:55:46.153Z,21.30
2019-02-08T06:58:38.798Z,19.57
2019-02-08T07:01:31.079Z,18.43
2019-02-08T07:04:29.552Z,18.77
2019-02-08T07:07:28.224Z,18.03
2019-02-08T07:10:16.239Z,18.70
2019-02-08T07:13:14.803Z,16.33
2019-02-08T07:16:04.291Z,14.57
2019-02-08T07:18:40.072Z,15.10
2019-02-08T07:21:44.930Z,14.27
2019-02-08T07:24:33.041Z,14.40
2019-02-08T07:27:15.393Z,13.77
2019-02-08T07:30:03.783Z,13.33
2019-02-08T07:32:49.147Z,13.40
2019-02-08T07:35:42.170Z,11.87
2019-02-08T07:38:21.108Z,11.87
2019-02-08T07:41:07.025Z,13.47
2019-02-08T07:43:57.126Z,11.37
2019-02-08T07:46:34.203Z,11.73
2019-02-08T07:49:13.025Z,11.50
2019-02-08T07:51:50.815Z,12.33
2019-02-08T07:54:52.741Z,10.37
2019-02-08T07:57:41.510Z,10.70
2019-02-08T08:00:28.253Z,10.73
2019-02-08T08:03:09.450Z,11.10
2019-02-08T08:05:53.990Z,11.63
2019-02-08T08:08:46.640Z,11.80
2019-02-08T08:11:35.078Z,10.87
2019-02-08T08:14:25.042Z,11.73
2019-02-08T08:17:17.686Z,9.40
2019-02-08T08:20:08.914Z,10.73
2019-02-08T08:23:04.722Z,10.67
2019-02-08T08:26:01.129Z,10.50
2019-02-08T08:28:39.218Z,9.87
2019-02-08T08:31:20.583Z,11.10
2019-02-08T08:33:58.166Z,10.57
2019-02-08T08:36:56.092Z,9.83
2019-02-08T08:40:03.007Z,9.20
2019-02-08T08:42:52.029Z,9.63
2019-02-08T08:46:02.134Z,9.47
2019-02-08T08:49:28.652Z,8.80
2019-02-08T08:52:31.579Z,8.87
2019-02-08T08:55:42.140Z,8.53
2019-02-08T08:58:54.067Z,8.67
2019-02-08T09:01:57.825Z,8.90
2019-02-08T09:04:49.816Z,8.77
2019-02-08T09:07:49.540Z,9.10
2019-02-08T09:10:47.433Z,8.20
2019-02-08T09:13:45.170Z,8.23
2019-02-08T09:16:41.221Z,8.57
2019-02-08T09:19:45.177Z,8.43
2019-02-08T09:22:44.530Z,7.57
2019-02-08T09:25:50.138Z,5.40
2019-02-08T09:28:58.989Z,4.40
2019-02-08T09:32:17.051Z,4.60
2019-02-08T09:35:34.785Z,4.40
2019-02-08T09:38:49.227Z,4.80
2019-02-08T09:42:05.206Z,4.77
2019-02-08T09:45:32.202Z,4.37
2019-02-08T09:48:32.718Z,3.70
2019-02-08T09:51:47.196Z,5.00
2019-02-08T09:54:40.982Z,4.40
2019-02-08T09:58:03.369Z,4.63
2019-02-08T10:01:28.931Z,3.80
2019-02-08T10:04:45.469Z,3.50
2019-02-08T10:08:08.023Z,3.70
2019-02-08T10:11:21.577Z,3.20
2019-02-08T10:14:35.123Z,4.67
2019-02-08T10:17:41.689Z,4.40
2019-02-08T10:20:54.071Z,4.23
2019-02-08T10:24:15.016Z,3.73
2019-02-08T10:27:28.190Z,4.37
2019-02-08T10:30:41.412Z,3.47
2019-02-08T10:33:48.057Z,3.60
2019-02-08T10:36:54.260Z,3.30
2019-02-08T10:40:06.210Z,3.63
2019-02-08T10:43:15.497Z,3.47
2019-02-08T10:46:19.034Z,3.83
2019-02-08T10:49:24.062Z,3.17
2019-02-08T10:52:35.476Z,3.30
2019-02-08T10:56:15.345Z,3.27
2019-02-08T10:59:22.087Z,2.77
2019-02-08T11:02:38.010Z,3.07
2019-02-08T11:06:04.988Z,2.93
2019-02-08T11:09:11.362Z,3.00
2019-02-08T11:12:18.867Z,3.07
2019-02-08T11:15:44.917Z,3.30
2019-02-08T11:18:52.745Z,3.07
2019-02-08T11:21:23.318Z,3.63
2019-02-08T11:23:54.123Z,2.93
2019-02-08T11:26:24.659Z,2.83
2019-02-08T11:28:55.228Z,3.13
2019-02-08T11:31:25.693Z,3.57
2019-02-08T11:33:56.290Z,3.37
2019-02-08T11:36:26.752Z,3.07
2019-02-08T11:38:58.187Z,3.20
2019-02-08T11:41:28.650Z,2.87
2019-02-08T11:43:59.122Z,3.10
2019-02-08T11:46:29.558Z,3.23
2019-02-08T11:49:00.018Z,2.70
2019-02-08T11:51:30.988Z,2.87
2019-02-08T11:54:01.451Z,2.73
2019-02-08T11:56:32.016Z,2.80
2019-02-08T11:59:02.493Z,2.63
2019-02-08T12:01:37.691Z,2.87
2019-02-08T12:04:08.814Z,2.70
2019-02-08T12:06:39.285Z,2.57
2019-02-08T12:09:14.750Z,2.60
2019-02-08T12:11:45.266Z,2.63
2019-02-08T12:14:15.752Z,2.85
2019-02-08T12:16:47.222Z,3.00
2019-02-08T12:19:17.976Z,2.60
2019-02-08T12:21:48.471Z,3.27
2019-02-08T12:24:18.929Z,2.50
2019-02-08T12:26:49.427Z,2.80
2019-02-08T12:29:20.229Z,2.83
2019-02-08T12:31:50.690Z,2.50
2019-02-08T12:34:21.170Z,2.43
2019-02-08T12:36:51.695Z,2.47
2019-02-08T12:39:22.238Z,2.20
2019-02-08T12:41:52.807Z,2.83
2019-02-08T12:44:23.270Z,2.43
2019-02-08T12:46:53.729Z,2.40
2019-02-08T12:49:24.293Z,2.70
2019-02-08T12:51:54.759Z,2.60
2019-02-08T12:54:25.438Z,2.33
2019-02-08T12:56:55.894Z,2.77
2019-02-08T12:59:26.451Z,2.60
2019-02-08T13:01:56.897Z,2.17
2019-02-08T13:04:27.387Z,1.93
2019-02-08T13:06:58.202Z,2.40
2019-02-08T13:09:28.838Z,2.50
2019-02-08T13:12:00.195Z,2.50
2019-02-08T13:14:30.910Z,2.03
2019-02-08T13:17:01.361Z,2.30
2019-02-08T13:19:31.881Z,2.10
2019-02-08T13:22:02.358Z,2.00
2019-02-08T13:24:33.132Z,2.57
2019-02-08T13:27:03.712Z,2.50
2019-02-08T13:29:34.589Z,2.40
2019-02-08T13:32:05.233Z,2.20
2019-02-08T13:34:35.671Z,2.10
2019-02-08T13:37:06.141Z,2.10
2019-02-08T13:39:36.607Z,2.10
2019-02-08T13:42:07.076Z,1.90
2019-02-08T13:44:37.568Z,1.90
2019-02-08T13:47:10.971Z,2.20
2019-02-08T13:49:41.503Z,2.10
2019-02-08T13:52:39.459Z,2.20
2019-02-08T13:55:14.559Z,1.80
2019-02-08T13:57:45.205Z,1.80
2019-02-08T14:00:19.303Z,1.83
2019-02-08T14:02:49.774Z,1.87
2019-02-08T14:05:20.233Z,1.40
2019-02-08T14:07:50.739Z,1.43
2019-02-08T14:10:21.258Z,1.80
2019-02-08T14:12:51.738Z,1.90
2019-02-08T14:15:23.639Z,1.83
2019-02-08T14:17:54.194Z,1.83
2019-02-08T14:20:25.890Z,2.03
2019-02-08T14:22:56.395Z,2.10
2019-02-08T14:25:27.078Z,2.10
2019-02-08T14:27:57.570Z,2.47
2019-02-08T14:30:36.494Z,2.60
2019-02-08T14:33:07.211Z,2.30
2019-02-08T14:35:37.799Z,2.23
2019-02-08T14:38:12.032Z,2.27
2019-02-08T14:40:42.468Z,1.87
2019-02-08T14:43:13.278Z,2.60
2019-02-08T14:45:43.739Z,2.77
2019-02-08T14:48:14.340Z,2.70
2019-02-08T14:50:44.903Z,2.40
2019-02-08T14:53:15.418Z,2.40
2019-02-08T14:55:45.886Z,2.70
2019-02-08T14:58:16.831Z,2.70
2019-02-08T15:00:47.749Z,2.30
2019-02-08T15:03:18.254Z,2.40
2019-02-08T15:05:48.736Z,2.53
2019-02-08T15:08:19.204Z,2.53
2019-02-08T15:10:50.767Z,2.33
2019-02-08T15:13:21.222Z,2.50
2019-02-08T15:15:51.794Z,2.10
2019-02-08T15:18:22.448Z,1.70
2019-02-08T15:20:53.165Z,1.60
2019-02-08T15:23:23.694Z,1.80
2019-02-08T15:25:54.297Z,2.00
2019-02-08T15:28:24.857Z,2.00
2019-02-08T15:30:55.414Z,2.10
2019-02-08T15:33:26.063Z,2.50
2019-02-08T15:35:56.590Z,2.57
2019-02-08T15:38:27.254Z,2.27
2019-02-08T15:40:58.102Z,2.40
2019-02-08T15:43:28.891Z,2.57
2019-02-08T15:46:01.995Z,2.67
2019-02-08T15:48:32.505Z,2.77
2019-02-08T15:51:03.134Z,3.35
2019-02-08T15:53:33.583Z,3.47
2019-02-08T15:56:07.983Z,2.90
2019-02-08T15:58:38.558Z,3.40
2019-02-08T16:01:10.778Z,3.40
2019-02-08T16:03:41.290Z,3.57
2019-02-08T16:06:11.834Z,4.00
2019-02-08T16:08:42.294Z,4.30
2019-02-08T16:11:13.098Z,3.57
2019-02-08T16:13:43.822Z,4.27
2019-02-08T16:16:14.361Z,4.20
2019-02-08T16:18:44.806Z,3.73
2019-02-08T16:21:15.403Z,4.10
2019-02-08T16:23:45.923Z,3.63
2019-02-08T16:26:16.377Z,3.52
2019-02-08T16:28:46.807Z,3.97
2019-02-08T16:31:17.414Z,3.47
2019-02-08T16:33:47.859Z,3.37
2019-02-08T16:36:18.322Z,3.50
2019-02-08T16:38:48.790Z,4.03
2019-02-08T16:41:19.846Z,4.07
2019-02-08T16:43:50.341Z,4.03
2019-02-08T16:46:20.890Z,3.80
2019-02-08T16:48:51.478Z,3.40
2019-02-08T16:51:21.987Z,3.43
2019-02-08T16:53:53.790Z,3.60
2019-02-08T16:56:24.330Z,4.20
2019-02-08T16:58:54.813Z,4.37
2019-02-08T17:01:25.267Z,5.03
2019-02-08T17:03:55.872Z,4.60
2019-02-08T17:06:26.390Z,4.40
2019-02-08T17:08:56.938Z,5.77
2019-02-08T17:11:27.540Z,5.90
2019-02-08T17:13:58.298Z,5.53
2019-02-08T17:16:29.705Z,5.17
2019-02-08T17:19:00.237Z,5.13
2019-02-08T17:21:31.747Z,5.07
2019-02-08T17:24:02.257Z,5.90
2019-02-08T17:26:33.059Z,5.10
2019-02-08T17:29:05.187Z,5.00
2019-02-08T17:31:35.691Z,5.17
2019-02-08T17:34:06.667Z,5.07
2019-02-08T17:36:37.126Z,5.67
2019-02-08T17:39:08.028Z,5.17
2019-02-08T17:41:38.513Z,4.90
2019-02-08T17:44:09.022Z,4.33
2019-02-08T17:46:39.481Z,5.10
2019-02-08T17:49:10.013Z,4.93
2019-02-08T17:51:40.535Z,5.50
2019-02-08T17:54:11.002Z,4.60
2019-02-08T17:56:42.043Z,4.23
2019-02-08T17:59:12.503Z,4.67
2019-02-08T18:01:43.104Z,5.20
2019-02-08T18:04:13.687Z,5.33
2019-02-08T18:06:44.121Z,4.43
2019-02-08T18:09:15.433Z,5.10
2019-02-08T18:11:45.903Z,5.20
2019-02-08T18:14:16.436Z,4.43
2019-02-08T18:16:46.894Z,4.43
2019-02-08T18:19:17.379Z,4.73
2019-02-08T18:21:47.894Z,4.70
2019-02-08T18:24:18.437Z,4.43
2019-02-08T18:26:48.949Z,4.50
2019-02-08T18:29:19.545Z,4.60
2019-02-08T18:31:49.985Z,4.83
2019-02-08T18:34:20.857Z,4.57
2019-02-08T18:36:51.318Z,4.13
2019-02-08T18:39:21.803Z,5.50
2019-02-08T18:41:52.357Z,5.00
2019-02-08T18:44:23.165Z,4.90
2019-02-08T18:46:53.885Z,5.13
2019-02-08T18:49:27.439Z,6.03
2019-02-08T18:51:58.002Z,6.43
2019-02-08T18:54:28.928Z,6.77
2019-02-08T18:56:59.364Z,5.97
2019-02-08T18:59:29.926Z,6.20
2019-02-08T19:02:00.487Z,6.47
2019-02-08T19:04:31.594Z,6.80
2019-02-08T19:07:02.126Z,6.93
2019-02-08T19:09:32.629Z,6.83
2019-02-08T19:12:03.213Z,6.80
2019-02-08T19:14:33.853Z,5.70
2019-02-08T19:17:10.794Z,5.67
2019-02-08T19:19:42.021Z,6.53
2019-02-08T19:22:12.462Z,6.10
2019-02-08T19:24:43.002Z,6.43
2019-02-08T19:27:13.556Z,6.17
2019-02-08T19:29:44.412Z,8.07
2019-02-08T19:32:14.986Z,6.93
2019-02-08T19:34:45.461Z,7.10
2019-02-08T19:37:18.902Z,7.63
2019-02-08T19:45:11.075Z,6.17
2019-02-08T19:48:28.547Z,8.73
2019-02-08T19:51:10.035Z,8.03
2019-02-08T19:53:42.215Z,8.20
2019-02-08T19:59:31.175Z,9.03
2019-02-08T20:02:02.056Z,9.40
2019-02-08T20:04:32.647Z,10.82
2019-02-08T20:07:03.118Z,10.35
2019-02-08T20:09:33.586Z,10.72
2019-02-08T20:12:04.692Z,10.80
2019-02-08T20:14:50.023Z,10.43
2019-02-08T20:17:37.015Z,9.78
2019-02-08T20:20:22.596Z,9.27
2019-02-08T20:22:55.042Z,8.95
2019-02-08T20:25:28.105Z,9.48
2019-02-08T20:27:58.547Z,9.28
2019-02-08T20:30:29.665Z,8.90
2019-02-08T20:33:00.390Z,8.53
2019-02-08T20:35:31.045Z,8.43
2019-02-08T20:38:01.560Z,7.95
2019-02-08T20:40:38.749Z,7.87
2019-02-08T20:43:09.306Z,7.33
2019-02-08T20:45:40.131Z,8.10
2019-02-08T20:48:36.861Z,7.65
2019-02-08T20:51:07.662Z,8.37
2019-02-08T20:53:38.130Z,8.60
2019-02-08T20:56:08.835Z,7.78
2019-02-08T20:58:39.329Z,8.10
2019-02-08T21:01:10.262Z,7.75
2019-02-08T21:03:40.886Z,7.13
2019-02-08T21:06:11.376Z,7.10
2019-02-08T21:08:42.105Z,6.15
2019-02-08T21:11:12.564Z,6.73
2019-02-08T21:13:43.114Z,6.40
2019-02-08T21:16:13.584Z,6.85
2019-02-08T21:18:44.342Z,7.00
2019-02-08T21:21:14.802Z,6.87
2019-02-08T21:23:45.375Z,6.80
2019-02-08T21:26:15.898Z,6.70
2019-02-08T21:28:46.455Z,6.90
2019-02-08T21:31:17.173Z,6.87
2019-02-08T21:33:47.935Z,6.47
2019-02-08T21:36:18.467Z,6.80
2019-02-08T21:38:49.162Z,7.23
2019-02-08T21:41:19.682Z,8.10
2019-02-08T21:43:50.265Z,7.97
2019-02-08T21:46:20.717Z,8.47
2019-02-08T21:48:51.209Z,9.00
2019-02-08T21:51:21.730Z,8.05
2019-02-08T21:53:52.189Z,9.20
2019-02-08T21:56:22.706Z,9.40
2019-02-08T21:58:53.212Z,10.20
2019-02-08T22:01:23.688Z,10.05
2019-02-08T22:03:54.157Z,10.20
2019-02-08T22:06:24.602Z,11.90
2019-02-08T22:08:55.462Z,11.30
2019-02-08T22:11:25.914Z,13.15
2019-02-08T22:13:56.399Z,13.10
2019-02-08T22:16:26.868Z,13.87
2019-02-08T22:18:57.339Z,14.70
2019-02-08T22:21:27.802Z,14.95
2019-02-08T22:23:58.246Z,15.25
2019-02-08T22:26:28.686Z,14.47
2019-02-08T22:28:59.210Z,15.23
2019-02-08T22:31:29.809Z,14.93
2019-02-08T22:34:00.401Z,15.58
2019-02-08T22:36:31.111Z,14.00
2019-02-08T22:39:01.679Z,14.13
2019-02-08T22:41:33.113Z,14.40
2019-02-08T22:44:03.641Z,14.45
2019-02-08T22:46:34.057Z,13.98
2019-02-08T22:49:04.660Z,13.67
2019-02-08T22:51:35.484Z,14.23
2019-02-08T22:54:06.006Z,13.80
2019-02-08T22:56:36.495Z,13.83
2019-02-08T22:59:06.971Z,13.45
2019-02-08T23:01:43.029Z,14.70
2019-02-08T23:04:14.822Z,13.78
2019-02-08T23:06:46.374Z,14.23
2019-02-08T23:09:21.517Z,13.80
2019-02-08T23:11:52.019Z,13.72
2019-02-08T23:14:22.710Z,14.53
2019-02-08T23:16:53.223Z,15.50
2019-02-08T23:19:24.665Z,13.77
2019-02-08T23:21:55.356Z,13.83
2019-02-08T23:24:25.906Z,14.90
2019-02-08T23:26:56.385Z,14.85
2019-02-08T23:29:30.127Z,15.50
2019-02-08T23:31:59.094Z,14.50
2019-02-08T23:34:29.584Z,15.72
2019-02-08T23:37:00.136Z,15.08
2019-02-08T23:39:30.674Z,14.30
2019-02-08T23:42:01.130Z,14.10
2019-02-08T23:44:31.597Z,13.83
2019-02-08T23:47:02.210Z,13.95
2019-02-08T23:49:32.862Z,13.70
2019-02-08T23:52:03.388Z,13.43
2019-02-08T23:54:33.834Z,8.00
2019-02-08T23:57:04.308Z,8.80
2019-02-08T23:59:38.258Z,6.08
